OJAQ/AQJ METAR and TAF weather

Enter ICAO airport designator
Station Type Date Time Source
OJAQ METAR 2019/06/17 14:00 UTC NOAA

OJAQ 171400Z 20012KT 9999 SCT030 34/16 Q1007 NOSIG


Station Type Date Time Source
OJAQ Decoded METAR 2019/06/17 14:00 UTC NOAA

Aqaba Airport, Jordan (OJAQ) 29-38N 035-01E 51M
Jun 17, 2019 - 10:00 AM EDT / 2019.06.17 1400 UTC
Wind: from the SSW (200 degrees) at 14 MPH (12 KT):0
Visibility: greater than 7 mile(s):0
Sky conditions: partly cloudy
Temperature: 93 F (34 C)
Dew Point: 60 F (16 C)
Relative Humidity: 34%
Pressure (altimeter): 29.74 in. Hg (1007 hPa)
ob: OJAQ 171400Z 20012KT 9999 SCT030 34/16 Q1007 NOSIG
cycle: 14

Station Type Date Time Source
OJAQ TAF 2019/06/17 12:15 UTC NOAA

TAF TAF OJAQ 171100Z 1712/1818 36015KT 7000 NSC PROB30
TEMPO 1712/1715 19012KT

Example: see airport list